sensor_id;sensor_type;location;lat;lon;timestamp;pressure;altitude;pressure_sealevel;temperature;humidity
22440;BME280;11387;51.612;7.210;2024-01-30T00:01:40;101765.44;;;4.88;100.00
22440;BME280;11387;51.612;7.210;2024-01-30T00:04:04;101763.56;;;4.88;100.00
22440;BME280;11387;51.612;7.210;2024-01-30T00:06:27;101764.84;;;4.86;100.00
22440;BME280;11387;51.612;7.210;2024-01-30T00:08:51;101762.00;;;4.81;100.00
22440;BME280;11387;51.612;7.210;2024-01-30T00:11:15;101763.75;;;4.75;100.00
22440;BME280;11387;51.612;7.210;2024-01-30T00:13:39;101761.50;;;4.72;100.00
22440;BME280;11387;51.612;7.210;2024-01-30T00:16:02;101750.06;;;4.70;100.00
22440;BME280;11387;51.612;7.210;2024-01-30T00:18:27;101761.38;;;4.67;100.00
22440;BME280;11387;51.612;7.210;2024-01-30T00:20:50;101759.34;;;4.62;100.00
22440;BME280;11387;51.612;7.210;2024-01-30T00:23:13;101758.53;;;4.62;100.00
22440;BME280;11387;51.612;7.210;2024-01-30T00:25:37;101752.28;;;4.61;100.00
22440;BME280;11387;51.612;7.210;2024-01-30T00:28:00;101759.56;;;4.61;100.00
22440;BME280;11387;51.612;7.210;2024-01-30T00:30:24;101752.28;;;4.61;100.00
22440;BME280;11387;51.612;7.210;2024-01-30T00:32:47;101755.22;;;4.60;100.00
22440;BME280;11387;51.612;7.210;2024-01-30T00:35:12;101754.75;;;4.63;100.00
22440;BME280;11387;51.612;7.210;2024-01-30T00:37:35;101750.53;;;4.67;100.00
22440;BME280;11387;51.612;7.210;2024-01-30T00:39:59;101745.84;;;4.74;100.00
22440;BME280;11387;51.612;7.210;2024-01-30T00:42:22;101741.72;;;4.71;100.00
22440;BME280;11387;51.612;7.210;2024-01-30T00:44:46;101749.16;;;4.76;100.00
22440;BME280;11387;51.612;7.210;2024-01-30T00:47:09;101746.06;;;4.72;100.00
22440;BME280;11387;51.612;7.210;2024-01-30T00:49:33;101745.38;;;4.77;100.00
22440;BME280;11387;51.612;7.210;2024-01-30T00:51:58;101744.56;;;4.77;100.00
22440;BME280;11387;51.612;7.210;2024-01-30T00:54:21;101742.44;;;4.79;100.00
22440;BME280;11387;51.612;7.210;2024-01-30T00:56:44;101754.94;;;4.80;100.00
22440;BME280;11387;51.612;7.210;2024-01-30T00:59:08;101747.84;;;4.79;100.00
22440;BME280;11387;51.612;7.210;2024-01-30T01:01:31;101749.03;;;4.83;100.00
22440;BME280;11387;51.612;7.210;2024-01-30T01:03:55;101744.69;;;4.82;100.00
22440;BME280;11387;51.612;7.210;2024-01-30T01:06:18;101747.16;;;4.83;100.00
22440;BME280;11387;51.612;7.210;2024-01-30T01:08:43;101740.69;;;4.84;100.00
22440;BME280;11387;51.612;7.210;2024-01-30T01:11:07;101739.03;;;4.83;100.00
22440;BME280;11387;51.612;7.210;2024-01-30T01:13:30;101734.31;;;4.90;100.00
22440;BME280;11387;51.612;7.210;2024-01-30T01:15:54;101736.09;;;4.96;100.00
22440;BME280;11387;51.612;7.210;2024-01-30T01:18:18;101734.56;;;5.00;100.00
22440;BME280;11387;51.612;7.210;2024-01-30T01:20:41;101742.81;;;5.05;100.00
22440;BME280;11387;51.612;7.210;2024-01-30T01:23:05;101741.53;;;5.08;100.00
22440;BME280;11387;51.612;7.210;2024-01-30T01:25:29;101742.34;;;5.08;100.00
22440;BME280;11387;51.612;7.210;2024-01-30T01:27:53;101734.69;;;5.05;100.00
22440;BME280;11387;51.612;7.210;2024-01-30T01:30:17;101755.31;;;5.06;100.00
22440;BME280;11387;51.612;7.210;2024-01-30T01:32:44;101747.66;;;5.03;100.00
22440;BME280;11387;51.612;7.210;2024-01-30T01:35:13;101744.81;;;4.98;100.00
22440;BME280;11387;51.612;7.210;2024-01-30T01:37:36;101739.97;;;5.00;100.00
22440;BME280;11387;51.612;7.210;2024-01-30T01:40:00;101742.81;;;5.05;100.00
22440;BME280;11387;51.612;7.210;2024-01-30T01:42:25;101739.78;;;5.14;100.00
22440;BME280;11387;51.612;7.210;2024-01-30T01:44:48;101734.22;;;5.20;100.00
22440;BME280;11387;51.612;7.210;2024-01-30T01:47:12;101740.22;;;5.34;100.00
22440;BME280;11387;51.612;7.210;2024-01-30T01:49:36;101738.78;;;5.55;100.00
22440;BME280;11387;51.612;7.210;2024-01-30T01:52:00;101738.09;;;5.59;100.00
22440;BME280;11387;51.612;7.210;2024-01-30T01:54:25;101733.13;;;5.56;100.00
22440;BME280;11387;51.612;7.210;2024-01-30T01:56:49;101734.06;;;5.62;100.00
22440;BME280;11387;51.612;7.210;2024-01-30T01:59:15;101726.28;;;5.65;100.00
22440;BME280;11387;51.612;7.210;2024-01-30T02:01:39;101719.31;;;5.69;100.00
22440;BME280;11387;51.612;7.210;2024-01-30T02:04:03;101723.69;;;5.70;100.00
22440;BME280;11387;51.612;7.210;2024-01-30T02:06:27;101724.25;;;5.72;100.00
22440;BME280;11387;51.612;7.210;2024-01-30T02:08:51;101729.94;;;5.71;100.00
22440;BME280;11387;51.612;7.210;2024-01-30T02:11:15;101726.84;;;5.79;100.00
22440;BME280;11387;51.612;7.210;2024-01-30T02:13:40;101721.91;;;5.76;100.00
22440;BME280;11387;51.612;7.210;2024-01-30T02:16:06;101721.56;;;5.72;100.00
22440;BME280;11387;51.612;7.210;2024-01-30T02:18:29;101715.66;;;5.75;100.00
22440;BME280;11387;51.612;7.210;2024-01-30T02:20:54;101713.88;;;5.69;100.00
22440;BME280;11387;51.612;7.210;2024-01-30T02:23:19;101720.50;;;5.62;100.00
22440;BME280;11387;51.612;7.210;2024-01-30T02:25:52;101710.34;;;5.57;100.00
22440;BME280;11387;51.612;7.210;2024-01-30T02:28:16;101714.53;;;5.48;100.00
22440;BME280;11387;51.612;7.210;2024-01-30T02:30:40;101707.91;;;5.44;100.00
22440;BME280;11387;51.612;7.210;2024-01-30T02:33:05;101704.59;;;5.42;100.00
22440;BME280;11387;51.612;7.210;2024-01-30T02:35:29;101703.31;;;5.45;100.00
22440;BME280;11387;51.612;7.210;2024-01-30T02:37:52;101693.88;;;5.47;100.00
22440;BME280;11387;51.612;7.210;2024-01-30T02:40:17;101700.09;;;5.59;100.00
22440;BME280;11387;51.612;7.210;2024-01-30T02:42:41;101704.22;;;5.62;100.00
22440;BME280;11387;51.612;7.210;2024-01-30T02:45:05;101695.94;;;5.57;100.00
22440;BME280;11387;51.612;7.210;2024-01-30T02:47:29;101695.00;;;5.51;100.00
22440;BME280;11387;51.612;7.210;2024-01-30T02:49:53;101689.03;;;5.49;100.00
22440;BME280;11387;51.612;7.210;2024-01-30T02:52:18;101691.38;;;5.46;100.00
22440;BME280;11387;51.612;7.210;2024-01-30T02:54:42;101684.06;;;5.46;100.00
22440;BME280;11387;51.612;7.210;2024-01-30T02:57:07;101677.81;;;5.46;100.00
22440;BME280;11387;51.612;7.210;2024-01-30T02:59:31;101681.25;;;5.41;100.00
22440;BME280;11387;51.612;7.210;2024-01-30T03:01:55;101679.06;;;5.55;100.00
22440;BME280;11387;51.612;7.210;2024-01-30T03:04:19;101680.31;;;5.47;100.00
22440;BME280;11387;51.612;7.210;2024-01-30T03:06:45;101668.25;;;5.43;100.00
22440;BME280;11387;51.612;7.210;2024-01-30T03:09:09;101670.88;;;5.38;100.00
22440;BME280;11387;51.612;7.210;2024-01-30T03:11:33;101660.59;;;5.40;100.00
22440;BME280;11387;51.612;7.210;2024-01-30T03:13:57;101665.31;;;5.45;100.00
22440;BME280;11387;51.612;7.210;2024-01-30T03:16:21;101669.91;;;5.44;100.00
22440;BME280;11387;51.612;7.210;2024-01-30T03:18:45;101660.34;;;5.41;100.00
22440;BME280;11387;51.612;7.210;2024-01-30T03:21:09;101663.31;;;5.40;100.00
22440;BME280;11387;51.612;7.210;2024-01-30T03:23:32;101660.34;;;5.41;100.00
22440;BME280;11387;51.612;7.210;2024-01-30T03:25:56;101659.91;;;5.33;100.00
22440;BME280;11387;51.612;7.210;2024-01-30T03:28:19;101660.59;;;5.28;100.00
22440;BME280;11387;51.612;7.210;2024-01-30T03:30:44;101660.25;;;5.25;100.00
22440;BME280;11387;51.612;7.210;2024-01-30T03:33:07;101656.63;;;5.19;100.00
22440;BME280;11387;51.612;7.210;2024-01-30T03:35:31;101665.00;;;5.18;100.00
22440;BME280;11387;51.612;7.210;2024-01-30T03:37:54;101655.56;;;5.08;100.00
22440;BME280;11387;51.612;7.210;2024-01-30T03:40:18;101649.78;;;5.05;100.00
22440;BME280;11387;51.612;7.210;2024-01-30T03:42:41;101654.16;;;5.06;100.00
22440;BME280;11387;51.612;7.210;2024-01-30T03:45:06;101654.03;;;5.13;100.00
22440;BME280;11387;51.612;7.210;2024-01-30T03:47:31;101654.69;;;5.43;100.00
22440;BME280;11387;51.612;7.210;2024-01-30T03:49:54;101654.81;;;5.48;100.00
22440;BME280;11387;51.612;7.210;2024-01-30T03:52:18;101644.84;;;5.65;100.00
22440;BME280;11387;51.612;7.210;2024-01-30T03:54:41;101651.19;;;5.71;100.00
22440;BME280;11387;51.612;7.210;2024-01-30T03:57:05;101646.22;;;5.80;100.00
22440;BME280;11387;51.612;7.210;2024-01-30T03:59:28;101645.69;;;5.83;100.00
22440;BME280;11387;51.612;7.210;2024-01-30T04:01:52;101646.53;;;5.95;100.00
22440;BME280;11387;51.612;7.210;2024-01-30T04:04:17;101643.34;;;6.15;100.00
22440;BME280;11387;51.612;7.210;2024-01-30T04:06:41;101641.94;;;6.12;100.00
22440;BME280;11387;51.612;7.210;2024-01-30T04:09:04;101633.72;;;6.07;100.00
22440;BME280;11387;51.612;7.210;2024-01-30T04:11:28;101636.09;;;6.03;100.00
22440;BME280;11387;51.612;7.210;2024-01-30T04:13:51;101631.63;;;5.97;100.00
22440;BME280;11387;51.612;7.210;2024-01-30T04:16:19;101634.59;;;5.96;100.00
22440;BME280;11387;51.612;7.210;2024-01-30T04:18:44;101628.19;;;6.02;100.00
22440;BME280;11387;51.612;7.210;2024-01-30T04:21:09;101624.91;;;6.00;100.00
22440;BME280;11387;51.612;7.210;2024-01-30T04:23:32;101630.00;;;5.96;100.00
22440;BME280;11387;51.612;7.210;2024-01-30T04:25:55;101624.69;;;5.90;100.00
22440;BME280;11387;51.612;7.210;2024-01-30T04:28:19;101619.59;;;5.93;100.00
22440;BME280;11387;51.612;7.210;2024-01-30T04:30:42;101618.44;;;5.89;100.00
22440;BME280;11387;51.612;7.210;2024-01-30T04:33:06;101618.66;;;5.88;100.00
22440;BME280;11387;51.612;7.210;2024-01-30T04:35:29;101617.97;;;5.92;100.00
22440;BME280;11387;51.612;7.210;2024-01-30T04:38:12;101619.47;;;6.00;100.00
22440;BME280;11387;51.612;7.210;2024-01-30T04:40:36;101605.41;;;6.03;100.00
22440;BME280;11387;51.612;7.210;2024-01-30T04:43:00;101616.50;;;6.01;100.00
22440;BME280;11387;51.612;7.210;2024-01-30T04:45:23;101621.34;;;5.99;100.00
22440;BME280;11387;51.612;7.210;2024-01-30T04:47:47;101615.25;;;5.92;100.00
22440;BME280;11387;51.612;7.210;2024-01-30T04:50:10;101624.47;;;5.91;100.00
22440;BME280;11387;51.612;7.210;2024-01-30T04:52:38;101618.31;;;5.96;100.00
22440;BME280;11387;51.612;7.210;2024-01-30T04:55:03;101614.84;;;6.00;100.00
22440;BME280;11387;51.612;7.210;2024-01-30T04:57:27;101619.81;;;6.20;100.00
22440;BME280;11387;51.612;7.210;2024-01-30T04:59:50;101625.00;;;6.22;100.00
22440;BME280;11387;51.612;7.210;2024-01-30T05:02:14;101620.97;;;6.07;100.00
22440;BME280;11387;51.612;7.210;2024-01-30T05:04:40;101617.34;;;6.02;100.00
22440;BME280;11387;51.612;7.210;2024-01-30T05:07:04;101619.59;;;5.93;100.00
22440;BME280;11387;51.612;7.210;2024-01-30T05:09:27;101615.59;;;5.84;100.00
22440;BME280;11387;51.612;7.210;2024-01-30T05:11:52;101619.31;;;5.78;100.00
22440;BME280;11387;51.612;7.210;2024-01-30T05:14:16;101618.72;;;5.76;100.00
22440;BME280;11387;51.612;7.210;2024-01-30T05:16:40;101614.84;;;5.72;100.00
22440;BME280;11387;51.612;7.210;2024-01-30T05:19:03;101613.44;;;5.69;100.00
22440;BME280;11387;51.612;7.210;2024-01-30T05:21:27;101609.06;;;5.68;100.00
22440;BME280;11387;51.612;7.210;2024-01-30T05:23:51;101611.28;;;5.71;100.00
22440;BME280;11387;51.612;7.210;2024-01-30T05:26:14;101608.47;;;5.66;100.00
22440;BME280;11387;51.612;7.210;2024-01-30T05:28:40;101614.03;;;5.60;100.00
22440;BME280;11387;51.612;7.210;2024-01-30T05:31:04;101602.59;;;5.58;100.00
22440;BME280;11387;51.612;7.210;2024-01-30T05:33:27;101608.28;;;5.56;100.00
22440;BME280;11387;51.612;7.210;2024-01-30T05:35:51;101604.72;;;5.56;100.00
22440;BME280;11387;51.612;7.210;2024-01-30T05:38:16;101606.13;;;5.58;100.00
22440;BME280;11387;51.612;7.210;2024-01-30T05:40:40;101612.53;;;5.52;100.00
22440;BME280;11387;51.612;7.210;2024-01-30T05:43:03;101613.69;;;5.56;100.00
22440;BME280;11387;51.612;7.210;2024-01-30T05:45:28;101616.00;;;5.48;100.00
22440;BME280;11387;51.612;7.210;2024-01-30T05:47:52;101619.06;;;5.39;100.00
22440;BME280;11387;51.612;7.210;2024-01-30T05:50:15;101620.50;;;5.30;100.00
22440;BME280;11387;51.612;7.210;2024-01-30T05:52:39;101612.97;;;5.21;100.00
22440;BME280;11387;51.612;7.210;2024-01-30T05:55:03;101606.63;;;5.15;100.00
22440;BME280;11387;51.612;7.210;2024-01-30T05:57:26;101609.56;;;5.14;100.00
22440;BME280;11387;51.612;7.210;2024-01-30T05:59:50;101610.22;;;5.44;100.00
22440;BME280;11387;51.612;7.210;2024-01-30T06:02:15;101600.91;;;5.40;100.00
22440;BME280;11387;51.612;7.210;2024-01-30T06:04:39;101607.28;;;5.34;100.00
22440;BME280;11387;51.612;7.210;2024-01-30T06:07:03;101613.41;;;5.29;100.00
22440;BME280;11387;51.612;7.210;2024-01-30T06:09:28;101602.50;;;5.53;100.00
22440;BME280;11387;51.612;7.210;2024-01-30T06:11:52;101613.81;;;5.61;100.00
22440;BME280;11387;51.612;7.210;2024-01-30T06:14:15;101610.97;;;5.85;100.00
22440;BME280;11387;51.612;7.210;2024-01-30T06:16:39;101610.34;;;5.78;100.00
22440;BME280;11387;51.612;7.210;2024-01-30T06:19:06;101613.53;;;5.74;100.00
22440;BME280;11387;51.612;7.210;2024-01-30T06:21:29;101618.47;;;5.78;100.00
22440;BME280;11387;51.612;7.210;2024-01-30T06:23:54;101614.69;;;5.79;100.00
22440;BME280;11387;51.612;7.210;2024-01-30T06:26:17;101604.91;;;5.78;100.00
22440;BME280;11387;51.612;7.210;2024-01-30T06:28:40;101614.50;;;5.68;100.00
22440;BME280;11387;51.612;7.210;2024-01-30T06:31:04;101609.31;;;5.67;100.00
22440;BME280;11387;51.612;7.210;2024-01-30T06:33:27;101606.81;;;5.65;100.00
22440;BME280;11387;51.612;7.210;2024-01-30T06:35:52;101615.06;;;5.70;100.00
22440;BME280;11387;51.612;7.210;2024-01-30T06:38:16;101617.22;;;5.68;100.00
22440;BME280;11387;51.612;7.210;2024-01-30T06:40:39;101611.78;;;5.68;100.00
22440;BME280;11387;51.612;7.210;2024-01-30T06:43:04;101610.72;;;5.69;100.00
22440;BME280;11387;51.612;7.210;2024-01-30T06:45:28;101610.22;;;5.72;100.00
22440;BME280;11387;51.612;7.210;2024-01-30T06:47:52;101603.25;;;5.77;100.00
22440;BME280;11387;51.612;7.210;2024-01-30T06:50:15;101603.75;;;5.73;100.00
22440;BME280;11387;51.612;7.210;2024-01-30T06:52:40;101603.50;;;5.75;100.00
22440;BME280;11387;51.612;7.210;2024-01-30T06:55:04;101601.13;;;5.79;100.00
22440;BME280;11387;51.612;7.210;2024-01-30T06:57:27;101606.75;;;5.89;100.00
22440;BME280;11387;51.612;7.210;2024-01-30T06:59:52;101602.00;;;5.96;100.00
22440;BME280;11387;51.612;7.210;2024-01-30T07:02:16;101599.53;;;5.94;100.00
22440;BME280;11387;51.612;7.210;2024-01-30T07:04:40;101598.38;;;5.90;100.00
22440;BME280;11387;51.612;7.210;2024-01-30T07:07:08;101605.56;;;5.85;100.00
22440;BME280;11387;51.612;7.210;2024-01-30T07:09:36;101615.28;;;5.81;100.00
22440;BME280;11387;51.612;7.210;2024-01-30T07:11:59;101614.34;;;5.75;100.00
22440;BME280;11387;51.612;7.210;2024-01-30T07:14:23;101612.34;;;5.70;100.00
22440;BME280;11387;51.612;7.210;2024-01-30T07:16:47;101618.50;;;5.66;100.00
22440;BME280;11387;51.612;7.210;2024-01-30T07:19:10;101620.28;;;5.60;100.00
22440;BME280;11387;51.612;7.210;2024-01-30T07:21:34;101615.00;;;5.54;100.00
22440;BME280;11387;51.612;7.210;2024-01-30T07:23:57;101621.50;;;5.53;100.00
22440;BME280;11387;51.612;7.210;2024-01-30T07:26:22;101620.44;;;5.54;100.00
22440;BME280;11387;51.612;7.210;2024-01-30T07:28:46;101628.91;;;5.57;100.00
22440;BME280;11387;51.612;7.210;2024-01-30T07:31:09;101634.91;;;5.71;100.00
22440;BME280;11387;51.612;7.210;2024-01-30T07:33:33;101626.16;;;5.81;100.00
22440;BME280;11387;51.612;7.210;2024-01-30T07:36:06;101631.19;;;5.89;100.00
22440;BME280;11387;51.612;7.210;2024-01-30T07:38:31;101639.06;;;6.02;100.00
22440;BME280;11387;51.612;7.210;2024-01-30T07:40:55;101628.88;;;6.26;100.00
22440;BME280;11387;51.612;7.210;2024-01-30T07:43:20;101638.78;;;6.49;100.00
22440;BME280;11387;51.612;7.210;2024-01-30T07:45:45;101627.44;;;6.68;100.00
22440;BME280;11387;51.612;7.210;2024-01-30T07:48:09;101633.66;;;6.86;100.00
22440;BME280;11387;51.612;7.210;2024-01-30T07:50:32;101631.34;;;6.94;100.00
22440;BME280;11387;51.612;7.210;2024-01-30T07:52:59;101634.56;;;7.30;100.00
22440;BME280;11387;51.612;7.210;2024-01-30T07:55:23;101638.06;;;7.47;100.00
22440;BME280;11387;51.612;7.210;2024-01-30T07:57:51;101642.75;;;7.52;100.00
22440;BME280;11387;51.612;7.210;2024-01-30T08:00:17;101648.50;;;7.55;100.00
22440;BME280;11387;51.612;7.210;2024-01-30T08:02:41;101652.13;;;7.61;100.00
22440;BME280;11387;51.612;7.210;2024-01-30T08:05:08;101657.31;;;7.84;100.00
22440;BME280;11387;51.612;7.210;2024-01-30T08:07:34;101649.50;;;7.93;100.00
22440;BME280;11387;51.612;7.210;2024-01-30T08:09:59;101650.78;;;8.12;100.00
22440;BME280;11387;51.612;7.210;2024-01-30T08:12:25;101663.47;;;8.28;100.00
22440;BME280;11387;51.612;7.210;2024-01-30T08:14:49;101665.56;;;8.43;100.00
22440;BME280;11387;51.612;7.210;2024-01-30T08:17:13;101663.78;;;8.59;100.00
22440;BME280;11387;51.612;7.210;2024-01-30T08:19:37;101660.34;;;8.68;100.00
22440;BME280;11387;51.612;7.210;2024-01-30T08:22:01;101667.81;;;8.83;100.00
22440;BME280;11387;51.612;7.210;2024-01-30T08:24:25;101664.59;;;8.86;100.00
22440;BME280;11387;51.612;7.210;2024-01-30T08:26:49;101667.41;;;9.01;100.00
22440;BME280;11387;51.612;7.210;2024-01-30T08:29:13;101673.03;;;9.27;100.00
22440;BME280;11387;51.612;7.210;2024-01-30T08:31:36;101660.00;;;9.39;100.00
22440;BME280;11387;51.612;7.210;2024-01-30T08:34:02;101666.63;;;9.58;99.73
22440;BME280;11387;51.612;7.210;2024-01-30T08:36:25;101664.97;;;9.47;99.60
22440;BME280;11387;51.612;7.210;2024-01-30T08:38:49;101667.66;;;9.42;99.90
22440;BME280;11387;51.612;7.210;2024-01-30T08:41:16;101673.41;;;9.45;100.00
22440;BME280;11387;51.612;7.210;2024-01-30T08:43:39;101665.47;;;9.44;100.00
22440;BME280;11387;51.612;7.210;2024-01-30T08:46:03;101667.94;;;9.45;100.00
22440;BME280;11387;51.612;7.210;2024-01-30T08:48:27;101666.56;;;9.48;100.00
22440;BME280;11387;51.612;7.210;2024-01-30T08:50:52;101663.31;;;9.46;100.00
22440;BME280;11387;51.612;7.210;2024-01-30T08:53:16;101667.72;;;9.57;99.63
22440;BME280;11387;51.612;7.210;2024-01-30T08:55:39;101670.47;;;9.62;99.11
22440;BME280;11387;51.612;7.210;2024-01-30T08:58:03;101673.75;;;9.64;99.12
22440;BME280;11387;51.612;7.210;2024-01-30T09:00:28;101676.22;;;9.66;98.76
22440;BME280;11387;51.612;7.210;2024-01-30T09:03:06;101681.47;;;9.83;98.27
22440;BME280;11387;51.612;7.210;2024-01-30T09:05:30;101679.59;;;9.88;97.90
22440;BME280;11387;51.612;7.210;2024-01-30T09:07:55;101682.56;;;9.76;98.45
22440;BME280;11387;51.612;7.210;2024-01-30T09:10:19;101680.09;;;9.75;98.68
22440;BME280;11387;51.612;7.210;2024-01-30T09:12:43;101673.81;;;9.74;98.89
22440;BME280;11387;51.612;7.210;2024-01-30T09:15:08;101677.66;;;9.84;98.64
22440;BME280;11387;51.612;7.210;2024-01-30T09:17:31;101685.38;;;10.02;97.45
22440;BME280;11387;51.612;7.210;2024-01-30T09:19:55;101697.13;;;9.97;97.73
22440;BME280;11387;51.612;7.210;2024-01-30T09:22:19;101692.50;;;10.03;97.94
22440;BME280;11387;51.612;7.210;2024-01-30T09:24:44;101701.78;;;9.97;97.77
22440;BME280;11387;51.612;7.210;2024-01-30T09:27:08;101699.88;;;10.02;97.42
22440;BME280;11387;51.612;7.210;2024-01-30T09:29:32;101695.78;;;10.00;98.21
22440;BME280;11387;51.612;7.210;2024-01-30T09:31:59;101703.16;;;9.99;98.18
22440;BME280;11387;51.612;7.210;2024-01-30T09:34:23;101712.38;;;9.88;98.12
22440;BME280;11387;51.612;7.210;2024-01-30T09:36:47;101704.97;;;9.84;98.94
22440;BME280;11387;51.612;7.210;2024-01-30T09:39:11;101713.25;;;9.94;98.42
22440;BME280;11387;51.612;7.210;2024-01-30T09:41:40;101716.00;;;9.99;98.58
22440;BME280;11387;51.612;7.210;2024-01-30T09:44:09;101712.47;;;10.03;97.88
22440;BME280;11387;51.612;7.210;2024-01-30T09:46:34;101711.94;;;10.06;97.78
22440;BME280;11387;51.612;7.210;2024-01-30T09:48:59;101707.88;;;10.19;97.12
22440;BME280;11387;51.612;7.210;2024-01-30T09:51:24;101701.81;;;10.17;96.87
22440;BME280;11387;51.612;7.210;2024-01-30T09:53:49;101709.84;;;10.34;95.94
22440;BME280;11387;51.612;7.210;2024-01-30T09:56:16;101700.56;;;10.50;95.35
22440;BME280;11387;51.612;7.210;2024-01-30T09:58:43;101691.81;;;10.53;94.76
22440;BME280;11387;51.612;7.210;2024-01-30T10:01:09;101692.91;;;10.67;93.84
22440;BME280;11387;51.612;7.210;2024-01-30T10:03:33;101692.63;;;10.84;93.27
22440;BME280;11387;51.612;7.210;2024-01-30T10:05:58;101699.72;;;11.10;91.86
22440;BME280;11387;51.612;7.210;2024-01-30T10:08:26;101694.25;;;11.31;90.76
22440;BME280;11387;51.612;7.210;2024-01-30T10:10:52;101698.75;;;11.71;88.55
22440;BME280;11387;51.612;7.210;2024-01-30T10:13:16;101705.06;;;11.71;87.52
22440;BME280;11387;51.612;7.210;2024-01-30T10:15:42;101698.66;;;12.01;86.64
22440;BME280;11387;51.612;7.210;2024-01-30T10:18:06;101696.13;;;12.54;84.69
22440;BME280;11387;51.612;7.210;2024-01-30T10:20:30;101699.38;;;13.77;76.81
22440;BME280;11387;51.612;7.210;2024-01-30T10:22:54;101707.50;;;15.46;67.21
22440;BME280;11387;51.612;7.210;2024-01-30T10:25:18;101708.00;;;16.52;61.31
22440;BME280;11387;51.612;7.210;2024-01-30T10:27:45;101712.72;;;17.10;57.71
22440;BME280;11387;51.612;7.210;2024-01-30T10:30:12;101718.41;;;17.67;55.13
22440;BME280;11387;51.612;7.210;2024-01-30T10:32:37;101716.88;;;16.27;58.34
22440;BME280;11387;51.612;7.210;2024-01-30T10:35:01;101715.53;;;15.89;59.21
22440;BME280;11387;51.612;7.210;2024-01-30T10:37:26;101710.28;;;15.60;62.00
22440;BME280;11387;51.612;7.210;2024-01-30T10:39:53;101711.94;;;15.14;62.95
22440;BME280;11387;51.612;7.210;2024-01-30T10:42:18;101712.19;;;14.99;64.50
22440;BME280;11387;51.612;7.210;2024-01-30T10:44:48;101706.59;;;16.19;61.58
22440;BME280;11387;51.612;7.210;2024-01-30T10:47:18;101718.75;;;16.68;57.38
22440;BME280;11387;51.612;7.210;2024-01-30T10:49:46;101708.63;;;16.13;59.01
22440;BME280;11387;51.612;7.210;2024-01-30T10:52:10;101716.88;;;14.99;62.63
22440;BME280;11387;51.612;7.210;2024-01-30T10:54:37;101713.75;;;14.73;65.23
22440;BME280;11387;51.612;7.210;2024-01-30T10:57:01;101716.41;;;14.40;66.79
22440;BME280;11387;51.612;7.210;2024-01-30T10:59:26;101713.19;;;14.57;66.20
22440;BME280;11387;51.612;7.210;2024-01-30T11:01:50;101721.16;;;14.16;68.10
22440;BME280;11387;51.612;7.210;2024-01-30T11:04:15;101719.44;;;13.77;70.26
22440;BME280;11387;51.612;7.210;2024-01-30T11:06:42;101726.94;;;13.96;69.52
22440;BME280;11387;51.612;7.210;2024-01-30T11:09:10;101727.00;;;13.43;71.72
22440;BME280;11387;51.612;7.210;2024-01-30T11:11:48;101710.41;;;13.24;73.44
22440;BME280;11387;51.612;7.210;2024-01-30T11:14:13;101709.50;;;13.34;73.38
22440;BME280;11387;51.612;7.210;2024-01-30T11:16:39;101713.13;;;13.29;73.80
22440;BME280;11387;51.612;7.210;2024-01-30T11:19:10;101705.66;;;13.01;75.23
22440;BME280;11387;51.612;7.210;2024-01-30T11:21:42;101712.91;;;13.21;74.67
22440;BME280;11387;51.612;7.210;2024-01-30T11:24:07;101717.88;;;13.19;74.47
22440;BME280;11387;51.612;7.210;2024-01-30T11:26:31;101713.50;;;13.18;75.29
22440;BME280;11387;51.612;7.210;2024-01-30T11:28:55;101714.31;;;13.18;74.95
22440;BME280;11387;51.612;7.210;2024-01-30T11:31:19;101721.34;;;12.95;75.85
22440;BME280;11387;51.612;7.210;2024-01-30T11:33:43;101714.69;;;13.06;75.82
22440;BME280;11387;51.612;7.210;2024-01-30T11:36:08;101720.47;;;13.05;76.39
22440;BME280;11387;51.612;7.210;2024-01-30T11:38:33;101721.66;;;12.94;76.44
22440;BME280;11387;51.612;7.210;2024-01-30T11:40:57;101729.50;;;12.76;77.88
22440;BME280;11387;51.612;7.210;2024-01-30T11:43:21;101727.56;;;12.77;78.20
22440;BME280;11387;51.612;7.210;2024-01-30T11:45:45;101720.53;;;12.61;79.56
22440;BME280;11387;51.612;7.210;2024-01-30T11:48:11;101711.88;;;12.43;80.43
22440;BME280;11387;51.612;7.210;2024-01-30T11:50:35;101717.88;;;12.51;80.82
22440;BME280;11387;51.612;7.210;2024-01-30T11:53:01;101723.97;;;12.37;81.59
22440;BME280;11387;51.612;7.210;2024-01-30T11:55:26;101726.44;;;12.39;81.92
22440;BME280;11387;51.612;7.210;2024-01-30T11:57:55;101721.00;;;12.29;82.67
22440;BME280;11387;51.612;7.210;2024-01-30T12:00:19;101729.06;;;12.15;83.54
22440;BME280;11387;51.612;7.210;2024-01-30T12:02:43;101728.50;;;12.13;84.18
22440;BME280;11387;51.612;7.210;2024-01-30T12:05:07;101726.00;;;12.22;84.29
22440;BME280;11387;51.612;7.210;2024-01-30T12:07:31;101730.09;;;12.24;84.32
22440;BME280;11387;51.612;7.210;2024-01-30T12:09:55;101728.97;;;12.30;84.50
22440;BME280;11387;51.612;7.210;2024-01-30T12:12:21;101731.13;;;12.33;84.06
22440;BME280;11387;51.612;7.210;2024-01-30T12:14:45;101718.63;;;12.17;85.08
22440;BME280;11387;51.612;7.210;2024-01-30T12:17:23;101715.63;;;12.08;85.90
22440;BME280;11387;51.612;7.210;2024-01-30T12:19:47;101717.88;;;11.96;86.88
22440;BME280;11387;51.612;7.210;2024-01-30T12:22:11;101721.41;;;12.02;86.55
22440;BME280;11387;51.612;7.210;2024-01-30T12:24:35;101724.41;;;12.10;86.74
22440;BME280;11387;51.612;7.210;2024-01-30T12:26:58;101717.13;;;11.75;88.32
22440;BME280;11387;51.612;7.210;2024-01-30T12:29:24;101716.03;;;11.82;88.32
22440;BME280;11387;51.612;7.210;2024-01-30T12:31:53;101720.69;;;11.81;88.84
22440;BME280;11387;51.612;7.210;2024-01-30T12:34:17;101725.34;;;11.80;89.43
22440;BME280;11387;51.612;7.210;2024-01-30T12:36:43;101729.47;;;11.78;89.51